createdAt,value
2017-02-19T00:01:57.852Z,5.1
2017-02-19T00:02:57.901Z,5.15
2017-02-19T00:04:57.927Z,5.12
2017-02-19T00:06:12.436Z,5.15
2017-02-19T00:06:57.944Z,5.1
2017-02-19T00:07:57.959Z,5.03
2017-02-19T00:09:12.497Z,5.02
2017-02-19T00:09:58.025Z,5.13
2017-02-19T00:10:58.050Z,5.24
2017-02-19T00:11:58.057Z,5.15
2017-02-19T00:13:12.566Z,5.17
2017-02-19T00:13:58.069Z,5.13
2017-02-19T00:14:58.080Z,5.21
2017-02-19T00:15:58.089Z,5.12
2017-02-19T00:16:58.130Z,5.15
2017-02-19T00:17:58.142Z,5.13
2017-02-19T00:18:58.152Z,5.13
2017-02-19T00:19:58.175Z,5.15
2017-02-19T00:20:58.186Z,5.1
2017-02-19T00:21:58.199Z,5.12
2017-02-19T00:22:58.241Z,5.12
2017-02-19T00:23:57.850Z,5.07
2017-02-19T00:24:58.275Z,5.06
2017-02-19T00:25:57.896Z,5.1
2017-02-19T00:26:58.294Z,5.1
2017-02-19T00:27:58.322Z,5.04
2017-02-19T00:28:58.340Z,5.07
2017-02-19T00:29:58.353Z,5.1
2017-02-19T00:30:58.358Z,5.07
2017-02-19T00:32:12.908Z,5.03
2017-02-19T00:32:58.399Z,5.15
2017-02-19T00:33:58.412Z,5.06
2017-02-19T00:34:58.443Z,5.09
2017-02-19T00:35:58.456Z,5.04
2017-02-19T00:36:58.468Z,5.07
2017-02-19T00:38:13.009Z,5.13
2017-02-19T00:38:58.512Z,5.06
2017-02-19T00:39:58.511Z,4.97
2017-02-19T00:41:13.050Z,5.06
2017-02-19T00:41:58.553Z,5
2017-02-19T00:42:58.561Z,5.07
2017-02-19T00:43:58.581Z,5.04
2017-02-19T00:45:58.631Z,4.96
2017-02-19T00:46:58.674Z,4.97
2017-02-19T00:47:58.663Z,5.03
2017-02-19T00:48:58.703Z,5.15
2017-02-19T00:49:58.686Z,5.09
2017-02-19T00:50:58.717Z,5.04
2017-02-19T00:51:58.752Z,5.09
2017-02-19T00:52:58.763Z,5.04
2017-02-19T00:53:58.761Z,5.07
2017-02-19T00:55:13.300Z,5.09
2017-02-19T00:55:58.796Z,5.1
2017-02-19T00:57:13.332Z,5.02
2017-02-19T00:57:58.839Z,5.03
2017-02-19T00:58:58.837Z,5.06
2017-02-19T00:59:58.859Z,5.07
2017-02-19T01:00:58.887Z,5.1
2017-02-19T01:02:13.418Z,5.1
2017-02-19T01:02:58.904Z,5.12
2017-02-19T01:03:58.939Z,5.13
2017-02-19T01:04:58.943Z,5.17
2017-02-19T01:05:58.968Z,5.12
2017-02-19T01:06:58.997Z,5.1
2017-02-19T01:07:59.013Z,5.12
2017-02-19T01:08:59.032Z,5.03
2017-02-19T01:09:59.050Z,4.99
2017-02-19T01:10:59.056Z,5.06
2017-02-19T01:13:13.611Z,4.97
2017-02-19T01:13:59.133Z,4.94
2017-02-19T01:14:59.122Z,5.07
2017-02-19T01:15:59.141Z,5.1
2017-02-19T01:16:59.161Z,5.07
2017-02-19T01:18:59.194Z,5.09
2017-02-19T01:19:59.215Z,5.15
2017-02-19T01:21:13.739Z,5.1
2017-02-19T01:21:59.248Z,5.2
2017-02-19T01:22:59.271Z,5.06
2017-02-19T01:23:59.283Z,5.03
2017-02-19T01:24:59.308Z,5.03
2017-02-19T01:25:59.311Z,5.1
2017-02-19T01:26:59.334Z,5.13
2017-02-19T01:27:59.350Z,5.12
2017-02-19T01:29:13.876Z,5.13
2017-02-19T01:29:59.389Z,5.1
2017-02-19T01:30:59.411Z,5.15
2017-02-19T01:31:59.433Z,5.15
2017-02-19T01:32:59.445Z,5.09
2017-02-19T01:33:59.444Z,5.13
2017-02-19T01:34:59.463Z,5.1
2017-02-19T01:36:59.504Z,5.09
2017-02-19T01:37:59.538Z,5.15
2017-02-19T01:38:59.539Z,5.17
2017-02-19T01:39:59.571Z,5.09
2017-02-19T01:41:14.082Z,5.1
2017-02-19T01:42:14.115Z,5.09
2017-02-19T01:42:59.618Z,5.02
2017-02-19T01:44:14.151Z,4.99
2017-02-19T01:44:59.655Z,4.99
2017-02-19T01:45:59.662Z,5.1
2017-02-19T01:46:59.686Z,5.1
2017-02-19T01:47:59.694Z,5.04
2017-02-19T01:48:59.739Z,5
2017-02-19T01:49:59.729Z,4.96
2017-02-19T01:50:59.768Z,5.03
2017-02-19T01:51:59.773Z,5.06
2017-02-19T01:52:59.799Z,5.09
2017-02-19T01:53:59.824Z,5.1
2017-02-19T01:55:14.327Z,5.03
2017-02-19T01:55:59.844Z,5.03
2017-02-19T01:56:59.845Z,4.97
2017-02-19T01:57:59.887Z,5.03
2017-02-19T01:58:59.875Z,5.12
2017-02-19T01:59:59.917Z,4.97
2017-02-19T02:00:59.939Z,4.96
2017-02-19T02:01:59.948Z,4.96
2017-02-19T02:02:59.963Z,4.89
2017-02-19T02:03:59.989Z,4.92
2017-02-19T02:05:59.996Z,4.97
2017-02-19T02:07:00.026Z,4.94
2017-02-19T02:08:00.047Z,4.91
2017-02-19T02:09:00.059Z,4.84
2017-02-19T02:10:00.071Z,4.89
2017-02-19T02:11:14.606Z,4.88
2017-02-19T02:12:00.118Z,4.82
2017-02-19T02:13:00.131Z,4.84
2017-02-19T02:14:00.148Z,4.88
2017-02-19T02:15:00.197Z,4.88
2017-02-19T02:16:14.691Z,4.88
2017-02-19T02:17:00.205Z,4.96
2017-02-19T02:18:00.220Z,4.86
2017-02-19T02:19:00.220Z,5
2017-02-19T02:20:00.252Z,4.99
2017-02-19T02:21:00.255Z,4.99
2017-02-19T02:22:14.801Z,4.94
2017-02-19T02:24:00.325Z,4.92
2017-02-19T02:25:00.344Z,4.97
2017-02-19T02:26:00.372Z,4.96
2017-02-19T02:27:00.369Z,4.96
2017-02-19T02:28:00.388Z,4.96
2017-02-19T02:29:00.522Z,4.96
2017-02-19T02:30:00.410Z,5.03
2017-02-19T02:31:00.427Z,4.94
2017-02-19T02:32:14.965Z,4.94
2017-02-19T02:33:00.572Z,5.04
2017-02-19T02:34:00.509Z,4.94
2017-02-19T02:35:00.499Z,4.92
2017-02-19T02:36:00.529Z,5.02
2017-02-19T02:37:00.556Z,5
2017-02-19T02:38:00.549Z,5.04
2017-02-19T02:39:00.576Z,4.94
2017-02-19T02:40:00.610Z,4.97
2017-02-19T02:41:00.636Z,4.94
2017-02-19T02:42:00.619Z,4.89
2017-02-19T02:43:00.649Z,4.92
2017-02-19T02:45:00.689Z,4.89
2017-02-19T02:46:00.709Z,4.97
2017-02-19T02:47:00.721Z,5.09
2017-02-19T02:48:15.244Z,5.04
2017-02-19T02:49:00.749Z,5.04
2017-02-19T02:50:00.787Z,4.94
2017-02-19T02:51:15.301Z,5
2017-02-19T02:52:00.824Z,5.03
2017-02-19T02:53:00.809Z,4.97
2017-02-19T02:54:00.842Z,4.89
2017-02-19T02:55:00.854Z,4.89
2017-02-19T02:56:00.864Z,5.06
2017-02-19T02:57:00.891Z,4.97
2017-02-19T02:58:00.927Z,4.94
2017-02-19T02:59:00.914Z,4.88
2017-02-19T03:00:00.935Z,5
2017-02-19T03:01:00.962Z,4.92
2017-02-19T03:02:00.993Z,4.82
2017-02-19T03:03:00.997Z,4.96
2017-02-19T03:04:15.131Z,4.86
2017-02-19T03:05:01.029Z,4.96
2017-02-19T03:06:01.034Z,4.92
2017-02-19T03:07:01.056Z,4.99
2017-02-19T03:08:15.592Z,5
2017-02-19T03:09:01.092Z,4.96
2017-02-19T03:10:01.109Z,4.99
2017-02-19T03:11:15.640Z,5.06
2017-02-19T03:12:01.148Z,4.97
2017-02-19T03:13:01.162Z,4.97
2017-02-19T03:14:01.194Z,5.04
2017-02-19T03:15:01.209Z,4.97
2017-02-19T03:16:01.222Z,4.91
2017-02-19T03:17:01.238Z,4.96
2017-02-19T03:18:01.259Z,4.88
2017-02-19T03:19:15.793Z,5
2017-02-19T03:20:01.281Z,4.99
2017-02-19T03:22:01.319Z,4.97
2017-02-19T03:23:01.333Z,5.02
2017-02-19T03:24:01.359Z,4.97
2017-02-19T03:25:01.386Z,4.97
2017-02-19T03:26:01.376Z,4.86
2017-02-19T03:27:01.418Z,4.86
2017-02-19T03:28:01.419Z,4.92
2017-02-19T03:29:01.445Z,4.92
2017-02-19T03:30:01.479Z,4.91
2017-02-19T03:31:01.496Z,4.85
2017-02-19T03:32:01.502Z,4.77
2017-02-19T03:33:01.510Z,4.89
2017-02-19T03:34:01.530Z,4.96
2017-02-19T03:35:01.562Z,4.96
2017-02-19T03:36:01.166Z,4.89
2017-02-19T03:37:01.571Z,4.84
2017-02-19T03:38:01.602Z,4.91
2017-02-19T03:39:01.630Z,4.92
2017-02-19T03:40:01.631Z,4.86
2017-02-19T03:41:01.661Z,4.91
2017-02-19T03:42:01.667Z,4.97
2017-02-19T03:43:01.693Z,4.97
2017-02-19T03:44:01.694Z,4.88
2017-02-19T03:45:01.719Z,4.88
2017-02-19T03:46:01.734Z,4.86
2017-02-19T03:47:01.767Z,4.84
2017-02-19T03:48:01.784Z,4.92
2017-02-19T03:49:01.783Z,4.85
2017-02-19T03:50:01.798Z,4.86
2017-02-19T03:51:16.326Z,4.82
2017-02-19T03:52:01.823Z,4.84
2017-02-19T03:53:16.368Z,4.85
2017-02-19T03:54:01.889Z,4.78
2017-02-19T03:55:01.882Z,4.86
2017-02-19T03:56:16.418Z,4.75
2017-02-19T03:57:01.921Z,4.84
2017-02-19T03:58:01.947Z,4.86
2017-02-19T03:59:01.948Z,4.7
2017-02-19T04:00:02.004Z,4.69
2017-02-19T04:01:16.497Z,4.7
2017-02-19T04:02:16.131Z,4.66
2017-02-19T04:03:02.036Z,4.73
2017-02-19T04:04:02.044Z,4.65
2017-02-19T04:05:02.054Z,4.67
2017-02-19T04:06:02.070Z,4.66
2017-02-19T04:07:16.611Z,4.77
2017-02-19T04:08:02.104Z,4.69
2017-02-19T04:09:02.122Z,4.66
2017-02-19T04:10:02.156Z,4.72
2017-02-19T04:11:02.158Z,4.89
2017-02-19T04:12:02.174Z,4.75
2017-02-19T04:13:02.193Z,4.65
2017-02-19T04:14:02.201Z,4.75
2017-02-19T04:15:02.217Z,4.85
2017-02-19T04:16:02.254Z,4.7
2017-02-19T04:17:02.261Z,4.75
2017-02-19T04:18:02.293Z,4.69
2017-02-19T04:19:02.287Z,4.66
2017-02-19T04:20:02.315Z,4.66
2017-02-19T04:21:16.852Z,4.72
2017-02-19T04:22:02.334Z,4.69
2017-02-19T04:23:16.892Z,4.67
2017-02-19T04:24:02.401Z,4.67
2017-02-19T04:25:02.387Z,4.72
2017-02-19T04:26:16.930Z,4.84
2017-02-19T04:27:02.436Z,4.66
2017-02-19T04:28:02.443Z,4.7
2017-02-19T04:29:02.467Z,4.77
2017-02-19T04:30:02.487Z,4.84
2017-02-19T04:31:02.501Z,4.78
2017-02-19T04:32:02.518Z,4.65
2017-02-19T04:34:02.572Z,4.82
2017-02-19T04:35:02.560Z,4.82
2017-02-19T04:36:17.093Z,4.73
2017-02-19T04:37:02.601Z,4.72
2017-02-19T04:38:02.615Z,4.73
2017-02-19T04:39:17.145Z,4.84
2017-02-19T04:40:02.640Z,4.91
2017-02-19T04:41:02.670Z,4.69
2017-02-19T04:42:02.718Z,4.91
2017-02-19T04:43:02.704Z,4.84
2017-02-19T04:44:02.719Z,4.82
2017-02-19T04:45:17.252Z,4.75
2017-02-19T04:47:02.765Z,4.72
2017-02-19T04:48:17.302Z,4.84
2017-02-19T04:50:02.836Z,4.63
2017-02-19T04:51:02.867Z,4.66
2017-02-19T04:52:17.379Z,4.72
2017-02-19T04:53:02.872Z,4.69
2017-02-19T04:54:17.408Z,4.65
2017-02-19T04:55:17.427Z,4.69
2017-02-19T04:56:02.931Z,4.67
2017-02-19T04:57:02.933Z,4.58
2017-02-19T04:58:02.950Z,4.45
2017-02-19T04:59:02.966Z,4.37
2017-02-19T05:01:03.014Z,4.4
2017-02-19T05:02:03.031Z,4.23
2017-02-19T05:03:03.038Z,4.09
2017-02-19T05:04:03.060Z,4
2017-02-19T05:05:03.082Z,4.04
2017-02-19T05:06:03.104Z,4
2017-02-19T05:07:03.116Z,3.91
2017-02-19T05:08:03.138Z,3.86
2017-02-19T05:09:03.151Z,3.75
2017-02-19T05:10:03.162Z,3.76
2017-02-19T05:11:03.184Z,3.72
2017-02-19T05:12:03.184Z,3.73
2017-02-19T05:13:03.209Z,3.6
2017-02-19T05:14:03.267Z,3.65
2017-02-19T05:15:03.256Z,3.66
2017-02-19T05:16:03.266Z,3.6
2017-02-19T05:17:03.279Z,3.51
2017-02-19T05:18:03.284Z,3.58
2017-02-19T05:19:17.824Z,3.52
2017-02-19T05:20:03.329Z,3.51
2017-02-19T05:21:03.347Z,3.47
2017-02-19T05:22:03.352Z,3.4
2017-02-19T05:23:17.887Z,3.35
2017-02-19T05:24:03.413Z,3.32
2017-02-19T05:25:03.409Z,3.45
2017-02-19T05:26:17.938Z,3.35
2017-02-19T05:27:03.446Z,3.26
2017-02-19T05:28:03.461Z,3.36
2017-02-19T05:29:03.488Z,3.43
2017-02-19T05:30:18.013Z,3.31
2017-02-19T05:31:03.514Z,3.2
2017-02-19T05:32:03.531Z,3.23
2017-02-19T05:33:03.541Z,3.17
2017-02-19T05:34:03.565Z,3.13
2017-02-19T05:35:03.570Z,3.2
2017-02-19T05:36:03.599Z,3.21
2017-02-19T05:37:03.623Z,3.06
2017-02-19T05:39:03.639Z,3.06
2017-02-19T05:40:03.687Z,3
2017-02-19T05:41:03.693Z,3.03
2017-02-19T05:42:18.229Z,3.08
2017-02-19T05:43:03.709Z,3.08
2017-02-19T05:44:18.243Z,3.02
2017-02-19T05:45:03.750Z,3.05
2017-02-19T05:46:03.794Z,3.05
2017-02-19T05:47:03.796Z,2.97
2017-02-19T05:48:03.792Z,2.93
2017-02-19T05:49:03.807Z,2.89
2017-02-19T05:50:03.818Z,2.82
2017-02-19T05:51:03.834Z,2.79
2017-02-19T05:52:04.118Z,2.84
2017-02-19T05:53:03.862Z,2.77
2017-02-19T05:54:03.897Z,2.82
2017-02-19T05:55:03.908Z,2.67
2017-02-19T05:56:03.926Z,2.69
2017-02-19T05:57:03.939Z,2.64
2017-02-19T05:58:18.469Z,2.61
2017-02-19T05:59:03.980Z,2.6
2017-02-19T06:01:04.001Z,2.53
2017-02-19T06:02:04.036Z,2.59
2017-02-19T06:03:04.035Z,2.59
2017-02-19T06:04:04.051Z,2.46
2017-02-19T06:05:04.065Z,2.54
2017-02-19T06:06:04.108Z,2.49
2017-02-19T06:07:04.101Z,2.54
2017-02-19T06:09:04.147Z,2.49
2017-02-19T06:10:04.158Z,2.52
2017-02-19T06:11:04.168Z,2.48
2017-02-19T06:12:18.701Z,2.39
2017-02-19T06:13:04.208Z,2.45
2017-02-19T06:14:18.719Z,2.49
2017-02-19T06:15:18.748Z,2.49
2017-02-19T06:16:04.231Z,2.53
2017-02-19T06:17:04.257Z,2.45
2017-02-19T06:18:04.281Z,2.52
2017-02-19T06:19:04.285Z,2.52
2017-02-19T06:20:04.322Z,2.42
2017-02-19T06:21:04.341Z,2.42
2017-02-19T06:22:04.358Z,2.45
2017-02-19T06:23:04.348Z,2.36
2017-02-19T06:24:04.368Z,2.43
2017-02-19T06:25:04.396Z,2.3
2017-02-19T06:26:04.419Z,2.34
2017-02-19T06:27:04.421Z,2.34
2017-02-19T06:28:04.427Z,2.34
2017-02-19T06:29:18.974Z,2.42
2017-02-19T06:30:04.455Z,2.43
2017-02-19T06:31:04.470Z,2.42
2017-02-19T06:32:04.489Z,2.43
2017-02-19T06:33:04.529Z,2.45
2017-02-19T06:34:04.531Z,2.49
2017-02-19T06:35:04.582Z,2.3
2017-02-19T06:37:04.579Z,2.42
2017-02-19T06:38:04.597Z,2.43
2017-02-19T06:39:04.619Z,2.52
2017-02-19T06:40:04.624Z,2.52
2017-02-19T06:41:04.658Z,2.49
2017-02-19T06:42:04.655Z,2.52
2017-02-19T06:43:04.673Z,2.48
2017-02-19T06:44:04.703Z,2.49
2017-02-19T06:45:04.717Z,2.56
2017-02-19T06:46:04.345Z,2.49
2017-02-19T06:47:04.741Z,2.59
2017-02-19T06:48:04.760Z,2.57
2017-02-19T06:49:04.783Z,2.57
2017-02-19T06:50:04.789Z,2.63
2017-02-19T06:51:04.807Z,2.49
2017-02-19T06:52:04.819Z,2.48
2017-02-19T06:54:04.863Z,2.71
2017-02-19T06:55:19.383Z,2.82
2017-02-19T06:56:04.904Z,2.79
2017-02-19T06:57:04.909Z,2.82
2017-02-19T06:58:04.910Z,2.87
2017-02-19T06:59:04.945Z,2.81
2017-02-19T07:00:04.959Z,2.81
2017-02-19T07:01:19.496Z,2.93
2017-02-19T07:03:05.023Z,2.99
2017-02-19T07:04:05.017Z,3.05
2017-02-19T07:05:05.052Z,3.2
2017-02-19T07:06:05.042Z,3.17
2017-02-19T07:07:05.068Z,3.17
2017-02-19T07:08:04.686Z,3.24
2017-02-19T07:10:05.126Z,3.45
2017-02-19T07:11:04.770Z,3.6
2017-02-19T07:12:05.149Z,3.68
2017-02-19T07:13:05.169Z,3.7
2017-02-19T07:14:05.191Z,3.84
2017-02-19T07:16:05.232Z,3.84
2017-02-19T07:17:19.756Z,3.97
2017-02-19T07:18:05.270Z,4.18
2017-02-19T07:19:05.281Z,4.27
2017-02-19T07:20:05.300Z,4.34
2017-02-19T07:21:19.831Z,4.44
2017-02-19T07:22:05.340Z,4.65
2017-02-19T07:23:05.394Z,4.67
2017-02-19T07:24:05.383Z,4.65
2017-02-19T07:25:05.393Z,4.7
2017-02-19T07:26:05.433Z,4.8
2017-02-19T07:27:05.437Z,4.78
2017-02-19T07:28:05.453Z,4.72
2017-02-19T07:29:05.494Z,4.77
2017-02-19T07:30:05.109Z,4.73
2017-02-19T07:31:05.509Z,4.69
2017-02-19T07:33:20.052Z,4.82
2017-02-19T07:34:05.563Z,4.77
2017-02-19T07:35:05.570Z,4.72
2017-02-19T07:36:20.118Z,4.73
2017-02-19T07:37:05.637Z,4.72
2017-02-19T07:38:05.645Z,4.7
2017-02-19T07:39:20.174Z,4.67
2017-02-19T07:41:05.702Z,4.67
2017-02-19T07:42:05.324Z,4.65
2017-02-19T07:43:05.737Z,4.66
2017-02-19T07:44:05.766Z,4.84
2017-02-19T07:45:20.291Z,4.7
2017-02-19T07:46:05.785Z,4.84
2017-02-19T07:47:05.793Z,4.8
2017-02-19T07:48:05.824Z,4.82
2017-02-19T07:49:20.376Z,4.75
2017-02-19T07:50:05.877Z,4.84
2017-02-19T07:51:05.876Z,4.89
2017-02-19T07:52:05.895Z,4.99
2017-02-19T07:53:05.901Z,5.03
2017-02-19T07:54:05.926Z,5.17
2017-02-19T07:55:05.937Z,5.33
2017-02-19T07:56:05.962Z,5.38
2017-02-19T07:57:05.982Z,5.46
2017-02-19T07:58:06.013Z,5.43
2017-02-19T07:59:20.533Z,5.57
2017-02-19T08:01:20.568Z,5.81
2017-02-19T08:02:06.086Z,5.81
2017-02-19T08:03:06.105Z,5.82
2017-02-19T08:04:20.635Z,6
2017-02-19T08:05:06.133Z,6.01
2017-02-19T08:06:06.155Z,6.14
2017-02-19T08:07:06.161Z,6.17
2017-02-19T08:08:06.182Z,6.4
2017-02-19T08:09:06.260Z,6.56
2017-02-19T08:10:06.220Z,6.71
2017-02-19T08:11:06.256Z,6.61
2017-02-19T08:12:06.260Z,6.61
2017-02-19T08:13:06.346Z,6.69
2017-02-19T08:14:20.836Z,6.69
2017-02-19T08:15:06.360Z,6.76
2017-02-19T08:16:06.345Z,6.71
2017-02-19T08:17:06.366Z,6.85
2017-02-19T08:18:06.389Z,6.79
2017-02-19T08:19:06.405Z,6.76
2017-02-19T08:20:06.440Z,6.59
2017-02-19T08:21:06.443Z,6.62
2017-02-19T08:22:06.084Z,6.69
2017-02-19T08:23:06.517Z,6.71
2017-02-19T08:24:21.023Z,6.73
2017-02-19T08:25:06.546Z,6.76
2017-02-19T08:26:06.546Z,6.58
2017-02-19T08:27:06.579Z,6.59
2017-02-19T08:28:06.589Z,6.56
2017-02-19T08:29:06.622Z,6.56
2017-02-19T08:30:06.627Z,6.55
2017-02-19T08:31:06.655Z,6.62
2017-02-19T08:32:06.673Z,6.67
2017-02-19T08:33:06.703Z,6.7
2017-02-19T08:34:06.699Z,6.66
2017-02-19T08:35:06.754Z,6.76
2017-02-19T08:36:21.254Z,6.8
2017-02-19T08:37:06.798Z,6.8
2017-02-19T08:38:21.300Z,6.8
2017-02-19T08:39:06.847Z,6.8
2017-02-19T08:40:06.429Z,7.02
2017-02-19T08:41:06.867Z,6.98
2017-02-19T08:42:06.855Z,7.15
2017-02-19T08:43:06.917Z,7.25
2017-02-19T08:45:06.925Z,7.63
2017-02-19T08:46:06.950Z,7.6
2017-02-19T08:47:06.959Z,7.6
2017-02-19T08:48:06.971Z,7.71
2017-02-19T08:49:07.028Z,7.87
2017-02-19T08:50:07.033Z,7.97
2017-02-19T08:51:07.050Z,8.07
2017-02-19T08:52:21.569Z,8.23
2017-02-19T08:53:07.106Z,8.2
2017-02-19T08:54:07.107Z,8.11
2017-02-19T08:55:07.131Z,8.08
2017-02-19T08:56:07.156Z,7.82
2017-02-19T08:57:07.167Z,7.8
2017-02-19T08:58:07.204Z,7.8
2017-02-19T08:59:07.237Z,7.86
2017-02-19T09:00:21.738Z,7.79
2017-02-19T09:01:07.267Z,7.83
2017-02-19T09:02:07.254Z,7.64
2017-02-19T09:03:07.310Z,7.58
2017-02-19T09:04:07.301Z,7.61
2017-02-19T09:05:07.351Z,7.53
2017-02-19T09:06:07.337Z,7.61
2017-02-19T09:07:21.893Z,7.55
2017-02-19T09:08:21.914Z,7.5
2017-02-19T09:09:07.416Z,7.48
2017-02-19T09:10:07.033Z,7.43
2017-02-19T09:11:07.892Z,7.5
2017-02-19T09:12:07.479Z,7.48
2017-02-19T09:14:07.505Z,7.52
2017-02-19T09:15:22.055Z,7.5
2017-02-19T09:16:07.547Z,7.5
2017-02-19T09:17:07.583Z,7.37
2017-02-19T09:18:07.588Z,7.37
2017-02-19T09:19:07.660Z,7.35
2017-02-19T09:20:22.134Z,7.24
2017-02-19T09:21:07.680Z,7.28
2017-02-19T09:22:07.662Z,7.2
2017-02-19T09:23:07.702Z,7.13
2017-02-19T09:24:22.217Z,7.2
2017-02-19T09:25:07.737Z,7.15
2017-02-19T09:26:07.762Z,7.3
2017-02-19T09:27:07.789Z,7.39
2017-02-19T09:28:07.789Z,7.42
2017-02-19T09:29:07.815Z,7.5
2017-02-19T09:30:07.427Z,7.49
2017-02-19T09:31:07.872Z,7.52
2017-02-19T09:33:07.902Z,7.55
2017-02-19T09:34:07.909Z,7.61
2017-02-19T09:35:07.958Z,7.52
2017-02-19T09:37:07.969Z,7.58
2017-02-19T09:38:07.990Z,7.61
2017-02-19T09:39:22.530Z,7.61
2017-02-19T09:40:07.618Z,7.58
2017-02-19T09:42:08.055Z,7.74
2017-02-19T09:43:08.068Z,7.79
2017-02-19T09:44:08.101Z,7.68
2017-02-19T09:45:07.745Z,7.63
2017-02-19T09:46:08.141Z,7.74
2017-02-19T09:48:08.184Z,7.67
2017-02-19T09:49:08.204Z,7.67
2017-02-19T09:50:08.214Z,7.64
2017-02-19T09:51:08.245Z,7.85
2017-02-19T09:52:08.258Z,7.85
2017-02-19T09:53:08.271Z,7.93
2017-02-19T09:54:08.310Z,7.86
2017-02-19T09:55:07.918Z,7.86
2017-02-19T09:56:08.344Z,7.79
2017-02-19T09:57:08.356Z,7.83
2017-02-19T09:58:08.362Z,7.74
2017-02-19T09:59:08.400Z,7.82
2017-02-19T10:00:08.422Z,7.77
2017-02-19T10:01:08.426Z,7.61
2017-02-19T10:02:08.449Z,7.64
2017-02-19T10:04:08.500Z,7.57
2017-02-19T10:05:08.530Z,7.58
2017-02-19T10:06:08.145Z,7.63
2017-02-19T10:07:08.551Z,7.58
2017-02-19T10:08:08.586Z,7.75
2017-02-19T10:09:08.600Z,7.68
2017-02-19T10:10:08.608Z,7.68
2017-02-19T10:11:23.139Z,7.69
2017-02-19T10:12:08.645Z,7.86
2017-02-19T10:13:08.672Z,7.86
2017-02-19T10:14:08.693Z,7.89
2017-02-19T10:16:08.731Z,8.04
2017-02-19T10:17:08.740Z,8.1
2017-02-19T10:18:08.789Z,8.07
2017-02-19T10:19:08.787Z,8.08
2017-02-19T10:20:08.803Z,8.08
2017-02-19T10:22:08.872Z,8.16
2017-02-19T10:23:23.378Z,8.22
2017-02-19T10:24:08.498Z,8.23
2017-02-19T10:25:08.909Z,8.33
2017-02-19T10:26:08.926Z,8.22
2017-02-19T10:27:23.467Z,8.37
2017-02-19T10:28:08.959Z,8.41
2017-02-19T10:29:08.985Z,8.43
2017-02-19T10:30:08.612Z,8.43
2017-02-19T10:31:09.042Z,8.43
2017-02-19T10:32:09.062Z,8.44
2017-02-19T10:33:09.071Z,8.41
2017-02-19T10:34:09.082Z,8.43
2017-02-19T10:35:09.098Z,8.38
2017-02-19T10:36:09.128Z,8.43
2017-02-19T10:37:09.154Z,8.23
2017-02-19T10:38:08.770Z,8.37
2017-02-19T10:39:09.182Z,8.41
2017-02-19T10:40:23.716Z,8.4
2017-02-19T10:41:09.237Z,8.33
2017-02-19T10:43:23.772Z,8.47
2017-02-19T10:45:09.327Z,8.41
2017-02-19T10:46:08.940Z,8.56
2017-02-19T10:47:09.355Z,8.7
2017-02-19T10:48:23.881Z,8.77
2017-02-19T10:49:09.393Z,8.83
2017-02-19T10:50:09.405Z,8.71
2017-02-19T10:51:09.439Z,8.7
2017-02-19T10:53:09.465Z,8.76
2017-02-19T10:54:09.487Z,8.7
2017-02-19T10:55:09.521Z,8.7
2017-02-19T10:56:09.538Z,8.68
2017-02-19T10:57:09.558Z,8.52
2017-02-19T10:58:09.327Z,8.53
2017-02-19T10:59:24.104Z,8.53
2017-02-19T11:00:09.215Z,8.56
2017-02-19T11:01:09.668Z,8.65
2017-02-19T11:02:09.662Z,8.62
2017-02-19T11:03:09.657Z,8.62
2017-02-19T11:04:09.679Z,8.58
2017-02-19T11:05:09.712Z,8.61
2017-02-19T11:06:09.334Z,8.71
2017-02-19T11:07:09.781Z,8.7
2017-02-19T11:08:09.762Z,8.63
2017-02-19T11:09:09.787Z,8.73
2017-02-19T11:10:09.813Z,8.71
2017-02-19T11:11:24.339Z,8.84
2017-02-19T11:12:09.854Z,8.73
2017-02-19T11:13:09.508Z,8.83
2017-02-19T11:14:24.410Z,8.86
2017-02-19T11:15:09.548Z,8.95
2017-02-19T11:16:09.553Z,8.96
2017-02-19T11:17:09.978Z,8.95
2017-02-19T11:18:09.976Z,8.89
2017-02-19T11:19:10.032Z,8.96
2017-02-19T11:20:10.003Z,8.95
2017-02-19T11:21:10.035Z,9.08
2017-02-19T11:22:10.062Z,9.11
2017-02-19T11:23:09.678Z,9.1
2017-02-19T11:24:10.105Z,9.1
2017-02-19T11:25:09.735Z,9.23
2017-02-19T11:26:24.645Z,9.1
2017-02-19T11:27:24.666Z,9.24
2017-02-19T11:28:09.796Z,9.1
2017-02-19T11:29:10.189Z,9.15
2017-02-19T11:30:09.820Z,9.14
2017-02-19T11:31:10.253Z,9.23
2017-02-19T11:32:09.881Z,9.18
2017-02-19T11:33:10.296Z,9.01
2017-02-19T11:34:09.910Z,9.05
2017-02-19T11:35:10.334Z,9.05
2017-02-19T11:36:24.858Z,9.05
2017-02-19T11:37:09.988Z,9.2
2017-02-19T11:39:10.403Z,9.33
2017-02-19T11:40:10.427Z,9.14
2017-02-19T11:41:10.470Z,9.24
2017-02-19T11:42:10.089Z,9.21
2017-02-19T11:43:10.506Z,9.28
2017-02-19T11:44:10.525Z,9.38
2017-02-19T11:45:10.533Z,9.21
2017-02-19T11:48:10.194Z,9.35
2017-02-19T11:49:10.210Z,9.35
2017-02-19T11:50:10.648Z,9.36
2017-02-19T11:51:25.166Z,9.36
2017-02-19T11:52:10.276Z,9.46
2017-02-19T11:53:10.699Z,9.36
2017-02-19T11:54:10.705Z,9.47
2017-02-19T11:55:10.739Z,9.42
2017-02-19T11:56:10.751Z,9.29
2017-02-19T11:57:10.800Z,9.24
2017-02-19T11:58:10.790Z,9.32
2017-02-19T11:59:10.855Z,9.24
2017-02-19T12:00:10.458Z,9.28
2017-02-19T12:01:10.878Z,9.24
2017-02-19T12:02:25.400Z,9.38
2017-02-19T12:04:10.916Z,9.35
2017-02-19T12:05:10.558Z,9.47
2017-02-19T12:06:10.574Z,9.39
2017-02-19T12:07:10.606Z,9.32
2017-02-19T12:08:11.016Z,9.35
2017-02-19T12:09:11.053Z,9.39
2017-02-19T12:11:11.088Z,9.4
2017-02-19T12:12:10.692Z,9.23
2017-02-19T12:13:11.124Z,9.15
2017-02-19T12:15:11.187Z,9.2
2017-02-19T12:16:10.796Z,9.14
2017-02-19T12:17:10.812Z,9.17
2017-02-19T12:18:25.719Z,9.21
2017-02-19T12:19:25.351Z,9.2
2017-02-19T12:20:10.869Z,9.23
2017-02-19T12:21:11.276Z,9.32
2017-02-19T12:22:10.902Z,9.26
2017-02-19T12:23:11.316Z,9.14
2017-02-19T12:24:11.345Z,9.28
2017-02-19T12:25:11.355Z,9.18
2017-02-19T12:26:11.381Z,9.18
2017-02-19T12:27:11.403Z,9.21
2017-02-19T12:28:11.416Z,9.24
2017-02-19T12:29:11.443Z,9.26
2017-02-19T12:30:11.069Z,9.33
2017-02-19T12:31:11.477Z,9.36
2017-02-19T12:32:11.501Z,9.54
2017-02-19T12:33:11.526Z,9.58
2017-02-19T12:34:26.065Z,9.81
2017-02-19T12:35:11.602Z,9.83
2017-02-19T12:36:11.586Z,9.79
2017-02-19T12:37:11.230Z,9.84
2017-02-19T12:38:11.628Z,9.79
2017-02-19T12:39:11.653Z,9.81
2017-02-19T12:40:11.274Z,9.89
2017-02-19T12:41:11.680Z,9.94
2017-02-19T12:42:11.709Z,9.93
2017-02-19T12:43:11.720Z,9.89
2017-02-19T12:44:11.756Z,10.05
2017-02-19T12:45:11.762Z,9.93
2017-02-19T12:46:11.430Z,10.05
2017-02-19T12:47:11.817Z,9.94
2017-02-19T12:48:11.440Z,9.94
2017-02-19T12:50:11.495Z,10.01
2017-02-19T12:51:11.902Z,10.17
2017-02-19T12:52:11.927Z,10.14
2017-02-19T12:54:11.961Z,10.04
2017-02-19T12:55:11.994Z,10.01
2017-02-19T12:56:11.610Z,9.97
2017-02-19T12:57:26.541Z,9.78
2017-02-19T12:58:12.057Z,9.74
2017-02-19T12:59:12.069Z,9.87
2017-02-19T13:00:12.092Z,9.71
2017-02-19T13:01:12.107Z,9.81
2017-02-19T13:02:12.140Z,9.76
2017-02-19T13:03:12.148Z,9.87
2017-02-19T13:04:12.170Z,9.93
2017-02-19T13:05:12.187Z,9.91
2017-02-19T13:06:12.218Z,9.96
2017-02-19T13:07:12.233Z,10.07
2017-02-19T13:08:12.256Z,10.02
2017-02-19T13:09:26.796Z,9.94
2017-02-19T13:10:11.904Z,9.9
2017-02-19T13:11:12.317Z,9.79
2017-02-19T13:12:12.357Z,9.84
2017-02-19T13:13:12.363Z,9.87
2017-02-19T13:14:12.393Z,9.86
2017-02-19T13:15:12.402Z,9.9
2017-02-19T13:16:12.434Z,9.84
2017-02-19T13:18:12.467Z,9.75
2017-02-19T13:19:12.491Z,9.68
2017-02-19T13:20:12.511Z,9.65
2017-02-19T13:21:27.048Z,9.81
2017-02-19T13:22:12.554Z,9.83
2017-02-19T13:23:12.568Z,9.78
2017-02-19T13:24:27.130Z,9.89
2017-02-19T13:25:12.255Z,9.89
2017-02-19T13:26:12.254Z,9.84
2017-02-19T13:27:12.663Z,9.89
2017-02-19T13:29:12.693Z,9.81
2017-02-19T13:30:12.725Z,9.79
2017-02-19T13:31:12.737Z,9.72
2017-02-19T13:32:12.383Z,9.74
2017-02-19T13:34:12.798Z,9.78
2017-02-19T13:35:12.831Z,9.69
2017-02-19T13:36:12.844Z,9.65
2017-02-19T13:37:27.379Z,9.65
2017-02-19T13:38:12.889Z,9.57
2017-02-19T13:39:12.902Z,9.51
2017-02-19T13:40:12.536Z,9.42
2017-02-19T13:41:27.468Z,9.6
2017-02-19T13:42:12.604Z,9.56
2017-02-19T13:43:12.599Z,9.58
2017-02-19T13:44:12.616Z,9.6
2017-02-19T13:45:12.645Z,9.6
2017-02-19T13:46:13.063Z,9.69
2017-02-19T13:47:12.682Z,9.83
2017-02-19T13:48:13.093Z,9.68
2017-02-19T13:49:12.717Z,9.65
2017-02-19T13:51:12.771Z,9.74
2017-02-19T13:52:12.800Z,9.72
2017-02-19T13:53:27.715Z,9.69
2017-02-19T13:54:13.241Z,9.74
2017-02-19T13:55:13.239Z,9.71
2017-02-19T13:56:13.282Z,9.78
2017-02-19T13:57:13.292Z,9.81
2017-02-19T13:58:12.907Z,9.87
2017-02-19T13:59:13.325Z,9.87
2017-02-19T14:00:13.341Z,9.96
2017-02-19T14:01:13.373Z,9.91
2017-02-19T14:02:13.003Z,9.93
2017-02-19T14:03:13.408Z,9.89
2017-02-19T14:04:13.436Z,9.79
2017-02-19T14:05:27.953Z,9.79
2017-02-19T14:06:13.455Z,9.72
2017-02-19T14:07:13.099Z,9.75
2017-02-19T14:08:13.114Z,9.87
2017-02-19T14:09:28.037Z,9.79
2017-02-19T14:10:13.537Z,9.71
2017-02-19T14:11:13.569Z,9.72
2017-02-19T14:12:13.592Z,9.72